Flight Track Log - Related Links

Times and Time Zones

All times are in EDT time to prevent confusion due to time zone crossing. See the KAL823 flight status page for this flight to view local times or setup timezone preferences in your user account.

Time Position Orientation Groundspeed Altitude Reporting Facility
EDT Latitude Longitude Course Direction KTS MPH feet Rate Location/Type
Sat 08:24:00 PM 37.5212 126.4712 17° North  Level Estimated
Sat 08:25:00 PM 37.5733 126.4918 17° North  Level Estimated
Sat 08:26:00 PM 37.6254 126.5126 17° North  Level Estimated
Sat 08:27:00 PM 37.6776 126.5333 17° North  Level Estimated
Sat 08:28:00 PM 37.7297 126.5540 17° North  Level Estimated
Sat 08:29:00 PM 37.7818 126.5748 18° North  Level Estimated
Sat 08:30:00 PM 37.8339 126.5956 18° North  Level Estimated
Sat 08:31:00 PM 37.8897 126.6180 18° North  Level Estimated
Sat 08:32:00 PM 37.9455 126.6403 18° North  Level Estimated
Sat 08:33:00 PM 38.0013 126.6627 18° North  Level Estimated
Sat 08:34:00 PM 38.0570 126.6852 18° North  Level Estimated
Sat 08:35:00 PM 38.1128 126.7076 18° North  Level Estimated
Sat 08:36:00 PM 38.1686 126.7301 18° North  Level Estimated
Sat 08:37:00 PM 38.2244 126.7527 18° North  Level Estimated
Sat 08:38:00 PM 38.2829 126.7764 18° North  Level Estimated
Sat 08:39:00 PM 38.3414 126.8001 18° North  Level Estimated
Sat 08:40:00 PM 38.3999 126.8239 18° North  Level Estimated
Sat 08:41:00 PM 38.4585 126.8477 18° North  Level Estimated
Sat 08:42:00 PM 38.5170 126.8715 18° North  Level Estimated
Sat 08:43:00 PM 38.5755 126.8954 18° North  Level Estimated
Sat 08:44:00 PM 38.6340 126.9193 18° North  Level Estimated
Sat 08:45:00 PM 38.6925 126.9433 18° North  Level Estimated
Sat 08:46:00 PM 38.7510 126.9673 18° North  Level Estimated
Sat 08:47:00 PM 38.8095 126.9913 18° North  Level Estimated
Sat 08:48:00 PM 38.8679 127.0154 18° North  Level Estimated
Sat 08:49:00 PM 38.9264 127.0395 18° North  Level Estimated
Sat 08:50:00 PM 38.9849 127.0637 18° North  Level Estimated
Sat 08:51:00 PM 39.0434 127.0879 18° North  Level Estimated
Sat 08:52:00 PM 39.1018 127.1121 18° North  Level Estimated
Sat 08:53:00 PM 39.1603 127.1364 18° North  Level Estimated
Sat 08:54:00 PM 39.2187 127.1607 18° North  Level Estimated
Sat 08:55:00 PM 39.2772 127.1851 18° North  Level Estimated
Sat 08:56:00 PM 39.3356 127.2095 18° North  Level Estimated
Sat 08:57:00 PM 39.3941 127.2339 18° North  Level Estimated
Sat 08:58:00 PM 39.4525 127.2584 18° North  Level Estimated
Sat 08:59:00 PM 39.5109 127.2829 18° North  Level Estimated
Sat 09:00:00 PM 39.5693 127.3075 18° North  Level Estimated
Sat 09:01:00 PM 39.6278 127.3321 18° North  Level Estimated
Sat 09:02:00 PM 39.6862 127.3567 18° North  Level Estimated
Sat 09:03:00 PM 39.7446 127.3814 18° North  Level Estimated
Sat 09:04:00 PM 39.8030 127.4062 18° North  Level Estimated
Sat 09:05:00 PM 39.8614 127.4309 18° North  Level Estimated
Sat 09:06:00 PM 39.9198 127.4557 18° North  Level Estimated
Sat 09:07:00 PM 39.9781 127.4806 18° North  Level Estimated
Sat 09:08:00 PM 40.0365 127.5055 18° North  Level Estimated
Sat 09:09:00 PM 40.0949 127.5304 18° North  Level Estimated
Sat 09:10:00 PM 40.1533 127.5554 18° North  Level Estimated
Sat 09:11:00 PM 40.2116 127.5805 18° North  Level Estimated
Sat 09:12:00 PM 40.2700 127.6055 18° North  Level Estimated
Sat 09:13:00 PM 40.3283 127.6306 18° North  Level Estimated
Sat 09:14:00 PM 40.3867 127.6558 18° North  Level Estimated
Sat 09:15:00 PM 40.4450 127.6810 18° North  Level Estimated
Sat 09:16:00 PM 40.5034 127.7063 18° North  Level Estimated
Sat 09:17:00 PM 40.5617 127.7315 18° North  Level Estimated
Sat 09:18:00 PM 40.6200 127.7569 18° North  Level Estimated
Sat 09:19:00 PM 40.6783 127.7822 18° North  Level Estimated
Sat 09:20:00 PM 40.7366 127.8077 18° North  Level Estimated
Sat 09:21:00 PM 40.7949 127.8331 18° North  Level Estimated
Sat 09:22:00 PM 40.8532 127.8587 18° North  Level Estimated
Sat 09:23:00 PM 40.9115 127.8842 18° North  Level Estimated
Sat 09:24:00 PM 40.9698 127.9098 18° North  Level Estimated
Sat 09:25:00 PM 41.0281 127.9355 18° North  Level Estimated
Sat 09:26:00 PM 41.0864 127.9612 18° North  Level Estimated
Sat 09:27:00 PM 41.1447 127.9869 18° North  Level Estimated
Sat 09:28:00 PM 41.2029 128.0127 18° North  Level Estimated
Sat 09:29:00 PM 41.2612 128.0385 18° North  Level Estimated
Sat 09:30:00 PM 41.3195 128.0644 18° North  Level Estimated
Sat 09:31:00 PM 41.3777 128.0903 18° North  Level Estimated
Sat 09:32:00 PM 41.4360 128.1163 18° North  Level Estimated
Sat 09:33:00 PM 41.4942 128.1423 18° North  Level Estimated
Sat 09:34:00 PM 41.5524 128.1684 19° North  Level Estimated
Sat 09:35:00 PM 41.6107 128.1945 19° North  Level Estimated
Sat 09:36:00 PM 41.6689 128.2206 19° North  Level Estimated
Sat 09:37:00 PM 41.7271 128.2468 19° North  Level Estimated
Sat 09:38:00 PM 41.7853 128.2731 19° North  Level Estimated
Sat 09:39:00 PM 41.8435 128.2994 19° North  Level Estimated
Sat 09:40:00 PM 41.9017 128.3257 19° North  Level Estimated
Sat 09:41:00 PM 41.9599 128.3521 19° North  Level Estimated
Sat 09:42:00 PM 42.0181 128.3786 19° North  Level Estimated
Sat 09:43:00 PM 42.0763 128.4050 19° North  Level Estimated
Sat 09:44:00 PM 42.1344 128.4316 19° North  Level Estimated
Sat 09:45:00 PM 42.1926 128.4582 19° North  Level Estimated
Sat 09:46:00 PM 42.2508 128.4848 19° North  Level Estimated
Sat 09:47:00 PM 42.3089 128.5115 19° North  Level Estimated
Sat 09:48:00 PM 42.3671 128.5382 19° North  Level Estimated
Sat 09:49:00 PM 42.4252 128.5650 19° North  Level Estimated
Sat 09:50:00 PM 42.4833 128.5919 19° North  Level Estimated
Sat 09:51:00 PM 42.5415 128.6188 19° North  Level Estimated
Sat 09:52:00 PM 42.5996 128.6457 19° North  Level Estimated
Sat 09:53:00 PM 42.6577 128.6727 19° North  Level Estimated
Sat 09:54:00 PM 42.7158 128.6997 19° North  Level Estimated
Sat 09:55:00 PM 42.7739 128.7268 19° North  Level Estimated
Sat 09:56:00 PM 42.8320 128.7540 19° North  Level Estimated
Sat 09:57:00 PM 42.8901 128.7811 19° North  Level Estimated
Sat 09:58:00 PM 42.9482 128.8084 19° North  Level Estimated
Sat 09:59:00 PM 43.0063 128.8357 19° North  Level Estimated
Sat 10:00:00 PM 43.0644 128.8630 19° North  Level Estimated
Sat 10:01:00 PM 43.1224 128.8904 19° North  Level Estimated
Sat 10:02:00 PM 43.1805 128.9179 19° North  Level Estimated
Sat 10:03:00 PM 43.2385 128.9454 19° North  Level Estimated
Sat 10:04:00 PM 43.2966 128.9729 19° North  Level Estimated
Sat 10:05:00 PM 43.3546 129.0005 19° North  Level Estimated
Sat 10:06:00 PM 43.4127 129.0282 19° North  Level Estimated
Sat 10:07:00 PM 43.4707 129.0559 19° North  Level Estimated
Sat 10:08:00 PM 43.5287 129.0836 19° North  Level Estimated
Sat 10:09:00 PM 43.5867 129.1115 19° North  Level Estimated
Sat 10:10:00 PM 43.6447 129.1393 19° North  Level Estimated
Sat 10:11:00 PM 43.7027 129.1673 19° North  Level Estimated
Sat 10:12:00 PM 43.7607 129.1952 19° North  Level Estimated
Sat 10:13:00 PM 43.8187 129.2233 19° North  Level Estimated
Sat 10:14:00 PM 43.8767 129.2513 19° North  Level Estimated
Sat 10:15:00 PM 43.9347 129.2795 19° North  Level Estimated
Sat 10:16:00 PM 43.9926 129.3077 19° North  Level Estimated
Sat 10:17:00 PM 44.0506 129.3359 19° North  Level Estimated
Sat 10:18:00 PM 44.1085 129.3642 19° North  Level Estimated
Sat 10:19:00 PM 44.1665 129.3926 19° North  Level Estimated
Sat 10:20:00 PM 44.2244 129.4210 19° North  Level Estimated
Sat 10:21:00 PM 44.2823 129.4495 19° North  Level Estimated
Sat 10:22:00 PM 44.3403 129.4780 19° North  Level Estimated
Sat 10:23:00 PM 44.3982 129.5066 19° North  Level Estimated
Sat 10:24:00 PM 44.4561 129.5353 19° North  Level Estimated
Sat 10:25:00 PM 44.5140 129.5640 19° North  Level Estimated
Sat 10:26:00 PM 44.5241 129.5690 19° North  Level Estimated
Sat 10:27:00 PM 44.5241 129.5690 35° Northeast  Level Estimated
Sat 10:28:00 PM 44.5241 129.5690 35° Northeast  Level Estimated
Sat 10:29:00 PM 44.5241 129.5690 35° Northeast  Level Estimated
Sat 10:30:00 PM 44.5241 129.5690 35° Northeast  Level Estimated
Sat 10:31:00 PM 44.5241 129.5690 35° Northeast  Level Estimated
Sat 10:32:00 PM 44.5241 129.5690 35° Northeast  Level Estimated
Sat 10:33:00 PM 44.5241 129.5690 35° Northeast  Level Estimated
Sat 10:34:00 PM 44.5241 129.5690 35° Northeast  Level Estimated
Sat 10:35:00 PM 44.5241 129.5690 35° Northeast  Level Estimated
Sat 10:36:00 PM 44.5241 129.5690 35° Northeast  Level Estimated
Sat 10:37:00 PM 44.5241 129.5690 35° Northeast  Level Estimated
Sat 10:38:00 PM 44.5241 129.5690 35° Northeast  Level Estimated
Sat 10:39:00 PM 44.5241 129.5690 35° Northeast  Level Estimated
Sat 10:40:00 PM 44.5241 129.5690 35° Northeast  Level Estimated
Sat 10:41:00 PM 44.5241 129.5690 35° Northeast  Level Estimated
Sat 10:42:00 PM 44.5241 129.5690 35° Northeast  Level Estimated
Sat 10:43:00 PM 44.5241 129.5690 35° Northeast  Level Estimated

Login

Don't have an account? Register now (free) for customized features, flight alerts, and more!